Time;durP1;ratioP1;P1;durP2;ratioP2;P2;SDS_P1;SDS_P2;PMS_P1;PMS_P2;Temp;Humidity;BMP_temperature;BMP_pressure;BME280_temperature;BME280_humidity;BME280_pressure;Samples;Min_cycle;Max_cycle;Signal;HPM_P1;HPM_P2
2022/09/30 00:00:22;;;;;;;14.93;10.55;;;;;;;;;;5071017;28;20079;-78
2022/09/30 00:02:48;;;;;;;16.23;11.00;;;;;;;;;;5070786;28;20016;-78
2022/09/30 00:05:14;;;;;;;15.57;10.13;;;;;;;;;;5070877;28;20464;-78
2022/09/30 00:07:40;;;;;;;13.05;10.25;;;;;;;;;;5070841;28;20020;-78
2022/09/30 00:10:06;;;;;;;14.23;10.57;;;;;;;;;;5069743;28;20379;-78
2022/09/30 00:12:33;;;;;;;15.45;10.85;;;;;;;;;;5070171;28;20036;-78
2022/09/30 00:14:58;;;;;;;17.60;10.88;;;;;;;;;;5068713;28;20090;-78
2022/09/30 00:17:24;;;;;;;16.00;11.82;;;;;;;;;;5070617;28;20020;-78
2022/09/30 00:19:51;;;;;;;18.33;12.57;;;;;;;;;;5070305;28;20021;-78
2022/09/30 00:22:17;;;;;;;15.43;12.10;;;;;;;;;;5070169;28;20493;-78
2022/09/30 00:24:43;;;;;;;17.30;12.85;;;;;;;;;;5069271;28;20024;-78
2022/09/30 00:27:09;;;;;;;15.95;12.63;;;;;;;;;;5070227;28;20082;-77
2022/09/30 00:29:35;;;;;;;14.05;11.75;;;;;;;;;;5070691;28;20069;-77
2022/09/30 00:32:01;;;;;;;14.80;11.10;;;;;;;;;;5070414;28;20475;-78
2022/09/30 00:34:27;;;;;;;17.02;12.48;;;;;;;;;;5070322;28;20058;-78
2022/09/30 00:36:57;;;;;;;16.02;12.40;;;;;;;;;;5070406;28;20086;-78
2022/09/30 00:39:24;;;;;;;16.15;11.00;;;;;;;;;;5069545;28;20032;-78
2022/09/30 00:41:55;;;;;;;14.95;11.63;;;;;;;;;;5050395;28;20550;-78
2022/09/30 00:44:40;;;;;;;14.18;11.43;;;;;;;;;;5064132;28;20036;-79
2022/09/30 00:47:18;;;;;;;14.95;11.93;;;;;;;;;;5050112;28;20032;-78
2022/09/30 00:49:45;;;;;;;17.35;13.68;;;;;;;;;;5066571;28;20082;-78
2022/09/30 00:52:11;;;;;;;15.70;11.43;;;;;;;;;;5070107;28;20084;-78
2022/09/30 00:54:37;;;;;;;16.13;12.65;;;;;;;;;;5069492;28;20059;-78
2022/09/30 00:57:04;;;;;;;18.13;12.45;;;;;;;;;;5069586;28;20413;-78
2022/09/30 00:59:37;;;;;;;16.67;12.50;;;;;;;;;;5069399;28;20029;-78
2022/09/30 01:02:04;;;;;;;18.17;12.38;;;;;;;;;;5070081;28;20028;-78
2022/09/30 01:04:31;;;;;;;17.80;12.68;;;;;;;;;;5067576;28;20016;-78
2022/09/30 01:07:08;;;;;;;17.88;13.55;;;;;;;;;;5050767;28;20067;-78
2022/09/30 01:09:40;;;;;;;13.95;11.90;;;;;;;;;;5064315;28;20050;-78
2022/09/30 01:12:11;;;;;;;19.70;12.93;;;;;;;;;;5059221;28;20036;-78
2022/09/30 01:14:37;;;;;;;16.40;11.18;;;;;;;;;;5060616;28;20028;-78
2022/09/30 01:17:15;;;;;;;15.55;11.35;;;;;;;;;;5058630;28;20036;-78
2022/09/30 01:20:02;;;;;;;15.13;11.60;;;;;;;;;;5061962;28;20623;-78
2022/09/30 01:22:28;;;;;;;15.13;11.73;;;;;;;;;;5059418;28;20503;-79
2022/09/30 01:25:03;;;;;;;16.33;12.00;;;;;;;;;;5056380;28;20043;-79
2022/09/30 01:27:47;;;;;;;17.75;12.20;;;;;;;;;;5060207;28;20025;-77
2022/09/30 01:30:20;;;;;;;18.77;13.52;;;;;;;;;;5062212;28;20037;-77
2022/09/30 01:32:48;;;;;;;16.73;13.20;;;;;;;;;;5059460;28;20021;-78
2022/09/30 01:35:20;;;;;;;17.05;13.18;;;;;;;;;;5063654;28;20045;-78
2022/09/30 01:38:05;;;;;;;16.02;13.45;;;;;;;;;;5060344;28;20025;-78
2022/09/30 01:40:31;;;;;;;16.52;13.00;;;;;;;;;;5061818;28;20497;-77
2022/09/30 01:43:00;;;;;;;20.10;15.07;;;;;;;;;;5057965;28;20029;-76
2022/09/30 01:45:41;;;;;;;17.23;13.20;;;;;;;;;;5059383;28;20024;-77
2022/09/30 01:48:22;;;;;;;17.35;13.65;;;;;;;;;;5059244;28;20027;-77
2022/09/30 01:51:07;;;;;;;19.60;14.55;;;;;;;;;;5063780;28;20029;-77
2022/09/30 01:53:45;;;;;;;20.73;14.20;;;;;;;;;;5057326;28;20025;-77
2022/09/30 01:56:22;;;;;;;16.98;13.88;;;;;;;;;;5062611;28;20051;-77
2022/09/30 01:58:55;;;;;;;17.08;14.38;;;;;;;;;;5058107;28;20019;-76
2022/09/30 02:01:26;;;;;;;18.45;14.20;;;;;;;;;;5061343;28;20796;-76
2022/09/30 02:03:55;;;;;;;18.88;14.43;;;;;;;;;;5058508;28;20029;-77
2022/09/30 02:06:25;;;;;;;21.70;15.52;;;;;;;;;;5056932;28;20029;-77
2022/09/30 02:08:55;;;;;;;19.38;15.40;;;;;;;;;;5070895;28;20032;-77
2022/09/30 02:11:29;;;;;;;17.92;14.48;;;;;;;;;;5072977;28;20024;-77
2022/09/30 02:14:02;;;;;;;19.80;16.33;;;;;;;;;;5072342;28;20060;-77
2022/09/30 02:16:32;;;;;;;21.33;15.60;;;;;;;;;;5073182;28;20067;-77
2022/09/30 02:19:03;;;;;;;22.33;18.35;;;;;;;;;;5072587;28;20119;-77
2022/09/30 02:21:33;;;;;;;22.63;18.10;;;;;;;;;;5073136;28;20029;-77
2022/09/30 02:24:04;;;;;;;23.65;18.80;;;;;;;;;;5061744;28;20437;-77
2022/09/30 02:26:33;;;;;;;22.13;17.77;;;;;;;;;;5073018;28;20020;-77
2022/09/30 02:29:02;;;;;;;22.42;17.27;;;;;;;;;;5071977;28;20048;-77
2022/09/30 02:31:29;;;;;;;24.00;18.63;;;;;;;;;;5071023;28;20390;-77
2022/09/30 02:34:07;;;;;;;24.52;18.73;;;;;;;;;;5073195;28;20468;-77
2022/09/30 02:36:36;;;;;;;20.85;17.02;;;;;;;;;;5073442;28;20483;-77
2022/09/30 02:39:06;;;;;;;22.35;16.90;;;;;;;;;;5070642;28;20033;-77
2022/09/30 02:41:35;;;;;;;23.57;19.43;;;;;;;;;;5073590;28;20024;-77
2022/09/30 02:44:03;;;;;;;25.33;18.65;;;;;;;;;;5074241;28;20070;-78
2022/09/30 02:46:43;;;;;;;27.45;19.20;;;;;;;;;;5073838;28;20032;-77
2022/09/30 02:49:18;;;;;;;24.13;18.85;;;;;;;;;;5070042;28;20085;-78
2022/09/30 02:51:55;;;;;;;23.20;18.42;;;;;;;;;;5063957;28;20478;-79
2022/09/30 02:54:27;;;;;;;27.70;20.35;;;;;;;;;;5066899;28;20021;-77
2022/09/30 02:57:07;;;;;;;26.38;19.42;;;;;;;;;;5063948;28;20475;-77
2022/09/30 02:59:33;;;;;;;23.60;18.75;;;;;;;;;;5067910;28;20027;-76
2022/09/30 03:01:59;;;;;;;25.67;19.90;;;;;;;;;;5058346;28;20018;-77
2022/09/30 03:04:28;;;;;;;21.80;18.40;;;;;;;;;;5064942;28;20021;-77
2022/09/30 03:06:54;;;;;;;24.95;18.55;;;;;;;;;;5061058;28;20036;-78
2022/09/30 03:09:24;;;;;;;22.92;18.10;;;;;;;;;;5062175;28;20044;-76
2022/09/30 03:11:52;;;;;;;24.10;18.58;;;;;;;;;;5060439;28;20017;-77
2022/09/30 03:14:28;;;;;;;23.63;19.25;;;;;;;;;;5065186;28;20021;-76
2022/09/30 03:17:01;;;;;;;23.38;19.20;;;;;;;;;;5060468;28;20033;-77
2022/09/30 03:19:46;;;;;;;23.35;18.58;;;;;;;;;;5066324;28;20024;-79
2022/09/30 03:22:18;;;;;;;23.45;18.50;;;;;;;;;;5062334;28;20049;-77
2022/09/30 03:24:44;;;;;;;24.90;19.95;;;;;;;;;;5063287;28;20086;-77
2022/09/30 03:27:11;;;;;;;24.55;19.08;;;;;;;;;;5060721;28;20403;-77
2022/09/30 03:29:46;;;;;;;27.65;19.92;;;;;;;;;;5064107;28;20028;-77
2022/09/30 03:32:12;;;;;;;26.58;19.15;;;;;;;;;;5061622;28;20028;-78
2022/09/30 03:34:44;;;;;;;25.95;20.05;;;;;;;;;;5062928;28;20016;-78
2022/09/30 03:37:10;;;;;;;26.55;20.10;;;;;;;;;;5061490;28;20095;-77
2022/09/30 03:39:51;;;;;;;24.35;19.67;;;;;;;;;;5060141;28;20028;-77
2022/09/30 03:42:17;;;;;;;;;;;;;;;;;;5071920;28;20039;-77
2022/09/30 03:44:46;;;;;;;24.90;18.85;;;;;;;;;;5071712;28;19940;-77
2022/09/30 03:47:14;;;;;;;24.50;19.88;;;;;;;;;;5071640;28;20093;-77
2022/09/30 03:49:49;;;;;;;28.00;21.10;;;;;;;;;;5070750;28;20099;-77
2022/09/30 03:52:16;;;;;;;28.55;21.02;;;;;;;;;;5071167;28;20032;-78
2022/09/30 03:54:49;;;;;;;25.17;20.13;;;;;;;;;;5063085;28;20067;-77
2022/09/30 03:57:15;;;;;;;24.70;19.00;;;;;;;;;;5070019;28;20037;-77
2022/09/30 03:59:42;;;;;;;27.00;20.08;;;;;;;;;;5071085;28;20825;-77
2022/09/30 04:02:09;;;;;;;22.98;19.38;;;;;;;;;;5070783;28;20498;-77
2022/09/30 04:04:35;;;;;;;25.05;19.55;;;;;;;;;;5070453;28;20024;-78
2022/09/30 04:07:01;;;;;;;25.90;19.50;;;;;;;;;;5069611;28;20021;-78
2022/09/30 04:09:27;;;;;;;30.15;21.60;;;;;;;;;;5070837;28;20128;-77
2022/09/30 04:11:53;;;;;;;30.85;20.77;;;;;;;;;;5070492;28;20024;-77
2022/09/30 04:14:19;;;;;;;25.23;20.25;;;;;;;;;;5069126;28;20036;-77
2022/09/30 04:16:45;;;;;;;27.83;19.63;;;;;;;;;;5069122;28;20041;-77
2022/09/30 04:19:11;;;;;;;25.58;19.55;;;;;;;;;;5069611;28;20029;-77
2022/09/30 04:21:37;;;;;;;26.30;19.58;;;;;;;;;;5069933;28;20523;-77
2022/09/30 04:24:03;;;;;;;22.10;18.75;;;;;;;;;;5068936;28;20036;-77
2022/09/30 04:26:30;;;;;;;22.58;18.40;;;;;;;;;;5070439;28;20016;-78
2022/09/30 04:28:57;;;;;;;28.08;19.65;;;;;;;;;;5069505;28;20720;-77
2022/09/30 04:31:24;;;;;;;24.27;19.50;;;;;;;;;;5071751;28;20024;-78
2022/09/30 04:33:50;;;;;;;26.38;20.40;;;;;;;;;;5069958;28;20040;-78
2022/09/30 04:36:16;;;;;;;26.95;20.30;;;;;;;;;;5063695;28;20044;-78
2022/09/30 04:38:42;;;;;;;26.85;20.52;;;;;;;;;;5072200;28;20033;-79
2022/09/30 04:41:10;;;;;;;24.33;19.05;;;;;;;;;;5070060;28;20056;-78
2022/09/30 04:43:36;;;;;;;25.25;18.17;;;;;;;;;;5059562;28;20086;-78
2022/09/30 04:46:03;;;;;;;26.67;20.88;;;;;;;;;;5066009;28;20429;-77
2022/09/30 04:48:30;;;;;;;27.30;20.50;;;;;;;;;;5070983;28;20499;-77
2022/09/30 04:50:57;;;;;;;29.63;22.10;;;;;;;;;;5069755;28;20028;-76
2022/09/30 04:53:23;;;;;;;25.73;19.58;;;;;;;;;;5070500;28;20048;-77
2022/09/30 04:55:49;;;;;;;29.02;21.00;;;;;;;;;;5068924;28;20087;-76
2022/09/30 04:58:15;;;;;;;25.67;19.42;;;;;;;;;;5067576;28;20391;-76
2022/09/30 05:00:41;;;;;;;13.85;8.55;;;;;;;;;;5057294;28;20061;-77
2022/09/30 05:03:08;;;;;;;9.55;5.70;;;;;;;;;;5065833;28;20494;-77
2022/09/30 05:05:34;;;;;;;9.63;5.95;;;;;;;;;;5069082;28;20478;-77
2022/09/30 05:08:01;;;;;;;9.55;5.45;;;;;;;;;;5063553;28;20020;-77
2022/09/30 05:10:27;;;;;;;8.38;4.88;;;;;;;;;;5069653;28;20038;-77
2022/09/30 05:12:53;;;;;;;15.30;9.52;;;;;;;;;;5068292;28;20391;-76
2022/09/30 05:15:19;;;;;;;17.27;13.75;;;;;;;;;;5069396;28;20111;-77
2022/09/30 05:17:48;;;;;;;20.48;16.33;;;;;;;;;;5069079;28;20052;-76
2022/09/30 05:20:14;;;;;;;21.65;17.42;;;;;;;;;;5069914;28;20028;-77
2022/09/30 05:22:40;;;;;;;25.02;19.05;;;;;;;;;;5066659;28;20098;-77
2022/09/30 05:25:06;;;;;;;24.75;18.48;;;;;;;;;;5059094;28;20028;-77
2022/09/30 05:27:32;;;;;;;24.30;17.27;;;;;;;;;;5061116;28;20021;-77
2022/09/30 05:29:58;;;;;;;12.15;8.15;;;;;;;;;;5064435;28;20051;-76
2022/09/30 05:32:24;;;;;;;10.38;5.72;;;;;;;;;;5068894;28;20065;-76
2022/09/30 05:34:50;;;;;;;8.95;5.57;;;;;;;;;;5068647;28;20150;-76
2022/09/30 05:37:16;;;;;;;8.27;4.90;;;;;;;;;;5055379;28;20107;-76
2022/09/30 05:39:42;;;;;;;8.25;5.03;;;;;;;;;;5068902;28;20039;-77
2022/09/30 05:42:08;;;;;;;9.95;5.05;;;;;;;;;;5069206;28;20096;-77
2022/09/30 05:44:34;;;;;;;10.50;5.68;;;;;;;;;;5068875;28;20021;-76
2022/09/30 05:47:01;;;;;;;10.48;5.38;;;;;;;;;;5051821;28;20033;-77
2022/09/30 05:49:29;;;;;;;20.35;15.13;;;;;;;;;;5067999;28;20098;-77
2022/09/30 05:51:55;;;;;;;19.88;14.43;;;;;;;;;;5061116;28;20743;-75
2022/09/30 05:54:21;;;;;;;21.90;16.88;;;;;;;;;;5061564;28;20029;-78
2022/09/30 05:56:47;;;;;;;11.35;7.28;;;;;;;;;;5061125;28;20634;-77
2022/09/30 05:59:13;;;;;;;22.77;17.10;;;;;;;;;;5062839;28;20017;-77
2022/09/30 06:01:39;;;;;;;22.75;18.20;;;;;;;;;;5057948;28;20088;-77
2022/09/30 06:04:05;;;;;;;24.88;19.27;;;;;;;;;;5060164;28;20059;-77
2022/09/30 06:06:31;;;;;;;27.80;19.85;;;;;;;;;;5052490;28;20491;-77
2022/09/30 06:08:58;;;;;;;25.00;19.55;;;;;;;;;;5051737;28;20035;-77
2022/09/30 06:11:24;;;;;;;27.30;20.67;;;;;;;;;;5069338;28;20062;-77
2022/09/30 06:13:51;;;;;;;27.02;20.75;;;;;;;;;;5067971;28;20029;-76
2022/09/30 06:16:17;;;;;;;30.92;21.90;;;;;;;;;;5066874;28;20578;-77
2022/09/30 06:18:44;;;;;;;29.10;22.42;;;;;;;;;;5065715;28;20024;-77
2022/09/30 06:21:12;;;;;;;31.23;23.05;;;;;;;;;;5067022;28;20265;-78
2022/09/30 06:23:38;;;;;;;31.05;24.40;;;;;;;;;;5065862;28;20498;-76
2022/09/30 06:26:05;;;;;;;35.58;26.20;;;;;;;;;;5068027;28;20021;-76
2022/09/30 06:28:34;;;;;;;36.72;27.15;;;;;;;;;;5068621;28;20077;-77
2022/09/30 06:31:00;;;;;;;40.45;29.45;;;;;;;;;;5067642;28;20025;-77
2022/09/30 06:33:27;;;;;;;39.20;28.42;;;;;;;;;;5070607;28;20040;-78
2022/09/30 06:35:53;;;;;;;38.33;29.52;;;;;;;;;;5068566;28;20033;-75
2022/09/30 06:38:21;;;;;;;34.85;28.45;;;;;;;;;;5067519;28;20123;-75
2022/09/30 06:40:49;;;;;;;34.20;27.58;;;;;;;;;;5067240;28;20463;-77
2022/09/30 06:43:15;;;;;;;35.20;27.65;;;;;;;;;;5067636;28;20398;-77
2022/09/30 06:45:41;;;;;;;35.25;28.15;;;;;;;;;;5067443;28;20077;-77
2022/09/30 06:48:09;;;;;;;29.48;25.55;;;;;;;;;;5070312;28;20104;-78
2022/09/30 06:50:37;;;;;;;32.28;26.42;;;;;;;;;;5069013;28;20032;-78
2022/09/30 06:53:07;;;;;;;35.03;28.52;;;;;;;;;;5068634;28;20028;-77
2022/09/30 06:55:37;;;;;;;34.25;26.55;;;;;;;;;;5071632;28;20012;-77
2022/09/30 06:58:03;;;;;;;35.55;28.25;;;;;;;;;;5061593;28;20037;-77
2022/09/30 07:00:29;;;;;;;29.80;25.02;;;;;;;;;;5072142;28;20032;-78
2022/09/30 07:02:56;;;;;;;29.73;24.15;;;;;;;;;;5072907;28;20036;-78
2022/09/30 07:05:24;;;;;;;27.35;22.85;;;;;;;;;;5072915;28;20036;-78
2022/09/30 07:07:51;;;;;;;27.13;21.60;;;;;;;;;;5070960;28;20054;-77
2022/09/30 07:10:17;;;;;;;31.88;24.08;;;;;;;;;;5072192;28;20139;-78
2022/09/30 07:12:43;;;;;;;30.30;24.17;;;;;;;;;;5070508;28;20021;-78
2022/09/30 07:15:10;;;;;;;31.17;24.58;;;;;;;;;;5072074;28;20028;-79
2022/09/30 07:17:36;;;;;;;31.70;26.92;;;;;;;;;;5070428;28;20775;-78
2022/09/30 07:20:02;;;;;;;33.42;24.55;;;;;;;;;;5072093;28;20028;-78
2022/09/30 07:22:29;;;;;;;32.08;26.77;;;;;;;;;;5071093;28;20046;-77
2022/09/30 07:24:56;;;;;;;28.73;23.92;;;;;;;;;;5071493;28;20043;-78
2022/09/30 07:27:22;;;;;;;35.80;27.85;;;;;;;;;;5070795;28;20437;-78
2022/09/30 07:29:48;;;;;;;31.23;24.70;;;;;;;;;;5070099;28;20025;-78
2022/09/30 07:32:14;;;;;;;31.13;27.13;;;;;;;;;;5069780;28;20025;-78
2022/09/30 07:34:43;;;;;;;31.92;26.35;;;;;;;;;;5071546;28;20024;-78
2022/09/30 07:37:11;;;;;;;30.60;27.15;;;;;;;;;;5071135;28;20024;-78
2022/09/30 07:39:39;;;;;;;32.78;26.73;;;;;;;;;;5070570;28;20032;-77
2022/09/30 07:42:05;;;;;;;29.38;24.30;;;;;;;;;;5071273;28;20029;-78
2022/09/30 07:44:31;;;;;;;31.67;25.98;;;;;;;;;;5071088;28;20030;-79
2022/09/30 07:46:57;;;;;;;39.40;26.02;;;;;;;;;;5070561;28;20063;-78
2022/09/30 07:49:24;;;;;;;30.92;25.75;;;;;;;;;;5071216;28;20024;-78
2022/09/30 07:51:51;;;;;;;38.60;25.70;;;;;;;;;;5071199;28;20475;-79
2022/09/30 07:54:18;;;;;;;33.85;26.35;;;;;;;;;;5071228;28;20032;-79
2022/09/30 07:56:45;;;;;;;34.33;28.10;;;;;;;;;;5071312;28;20471;-76
2022/09/30 07:59:12;;;;;;;29.52;23.80;;;;;;;;;;5071080;28;20040;-78
2022/09/30 08:01:39;;;;;;;35.65;27.20;;;;;;;;;;5071545;28;20031;-79
2022/09/30 08:04:06;;;;;;;34.88;29.67;;;;;;;;;;5070855;28;20028;-79
2022/09/30 08:06:35;;;;;;;33.72;29.50;;;;;;;;;;5069461;28;20036;-78
2022/09/30 08:09:02;;;;;;;31.23;27.70;;;;;;;;;;5071171;28;20095;-79
2022/09/30 08:11:28;;;;;;;32.95;26.25;;;;;;;;;;5070867;28;20479;-79
2022/09/30 08:13:55;;;;;;;34.10;29.15;;;;;;;;;;5070772;28;20027;-78
2022/09/30 08:16:22;;;;;;;31.00;26.75;;;;;;;;;;5070832;28;20438;-78
2022/09/30 08:18:48;;;;;;;30.52;26.98;;;;;;;;;;5071078;28;20024;-78
2022/09/30 08:21:14;;;;;;;31.10;27.60;;;;;;;;;;5070410;28;20031;-77
2022/09/30 08:23:41;;;;;;;33.42;26.55;;;;;;;;;;5070582;28;20032;-77
2022/09/30 08:26:08;;;;;;;34.42;28.42;;;;;;;;;;5070935;28;20052;-78
2022/09/30 08:28:34;;;;;;;31.83;27.77;;;;;;;;;;5071095;28;20502;-80
2022/09/30 08:31:04;;;;;;;30.08;26.90;;;;;;;;;;5070119;28;20109;-79
2022/09/30 08:33:30;;;;;;;26.00;23.25;;;;;;;;;;5070807;28;20378;-79
2022/09/30 08:35:56;;;;;;;28.95;24.70;;;;;;;;;;5070461;28;20033;-79
2022/09/30 08:38:23;;;;;;;30.20;26.67;;;;;;;;;;5071310;28;20025;-78
2022/09/30 08:41:13;;;;;;;29.40;24.75;;;;;;;;;;5071524;28;20029;-79
2022/09/30 08:43:39;;;;;;;26.20;23.20;;;;;;;;;;5072084;28;20021;-79
2022/09/30 08:46:10;;;;;;;28.00;24.60;;;;;;;;;;5071189;28;20029;-78
2022/09/30 08:48:49;;;;;;;23.63;20.05;;;;;;;;;;5070044;28;20027;-77
2022/09/30 08:51:29;;;;;;;28.38;21.80;;;;;;;;;;5069075;28;20027;-77
2022/09/30 08:53:57;;;;;;;21.70;18.17;;;;;;;;;;5070295;28;20108;-77
2022/09/30 08:56:25;;;;;;;30.17;25.90;;;;;;;;;;5069748;28;20043;-78
2022/09/30 08:58:54;;;;;;;29.90;25.15;;;;;;;;;;5070231;28;20020;-79
2022/09/30 09:01:26;;;;;;;27.30;24.30;;;;;;;;;;5069373;28;20482;-78
2022/09/30 09:03:53;;;;;;;20.60;18.48;;;;;;;;;;5070089;28;20029;-79
2022/09/30 09:06:37;;;;;;;23.60;21.08;;;;;;;;;;5065932;28;20332;-78
2022/09/30 09:09:12;;;;;;;21.77;19.55;;;;;;;;;;5049792;28;20104;-79
2022/09/30 09:11:52;;;;;;;23.60;21.10;;;;;;;;;;5067551;28;20039;-79
2022/09/30 09:14:37;;;;;;;21.90;19.50;;;;;;;;;;5069455;28;20025;-78
2022/09/30 09:17:06;;;;;;;26.13;21.42;;;;;;;;;;5069204;28;20044;-79
2022/09/30 09:19:42;;;;;;;24.58;19.80;;;;;;;;;;5070370;28;20029;-78
2022/09/30 09:22:12;;;;;;;18.90;15.15;;;;;;;;;;5069704;28;20080;-79
2022/09/30 09:24:45;;;;;;;20.05;17.98;;;;;;;;;;5071521;28;20036;-79
2022/09/30 09:27:17;;;;;;;20.00;18.02;;;;;;;;;;5070681;28;20039;-79
2022/09/30 09:29:55;;;;;;;17.40;15.07;;;;;;;;;;5070597;28;20032;-78
2022/09/30 09:32:21;;;;;;;20.00;16.40;;;;;;;;;;5070578;28;20025;-80
2022/09/30 09:34:53;;;;;;;18.33;16.35;;;;;;;;;;5071909;28;20032;-79
2022/09/30 09:38:23;;;;;;;14.35;12.80;;;;;;;;;;5070772;28;20143;-79
2022/09/30 09:40:13;;;;;;;19.38;17.30;;;;;;;;;;5050697;28;20122;-79
2022/09/30 09:42:42;;;;;;;19.58;16.35;;;;;;;;;;5067469;28;20025;-80
2022/09/30 09:45:18;;;;;;;13.40;11.38;;;;;;;;;;5069063;28;20055;-80
2022/09/30 09:47:50;;;;;;;14.13;12.70;;;;;;;;;;5051558;28;20046;-80
2022/09/30 09:50:20;;;;;;;17.33;15.57;;;;;;;;;;5070044;28;20025;-79
2022/09/30 09:52:46;;;;;;;;;;;;;;;;;;5069122;28;20031;-79
2022/09/30 09:55:12;;;;;;;13.65;11.30;;;;;;;;;;5068967;28;19909;-77
2022/09/30 09:57:40;;;;;;;14.35;12.85;;;;;;;;;;5068275;28;20414;-80
2022/09/30 10:03:03;;;;;;;16.38;14.63;;;;;;;;;;5069577;28;20036;-79
2022/09/30 10:05:38;;;;;;;12.90;11.52;;;;;;;;;;5069472;28;20035;-78
2022/09/30 10:08:20;;;;;;;17.63;15.55;;;;;;;;;;5067564;28;20021;-80
2022/09/30 10:10:51;;;;;;;14.02;11.55;;;;;;;;;;5073770;28;20107;-79
2022/09/30 10:13:18;;;;;;;13.50;11.07;;;;;;;;;;5078211;28;20086;-81
2022/09/30 10:15:45;;;;;;;10.25;8.52;;;;;;;;;;5074191;28;20460;-79
2022/09/30 10:18:19;;;;;;;14.85;12.90;;;;;;;;;;5071135;28;20028;-81
2022/09/30 10:20:50;;;;;;;17.17;13.80;;;;;;;;;;5069879;28;20024;-79
2022/09/30 10:23:18;;;;;;;15.95;13.77;;;;;;;;;;5069762;28;20045;-78
2022/09/30 10:25:56;;;;;;;10.98;8.65;;;;;;;;;;5069325;28;20047;-78
2022/09/30 10:28:24;;;;;;;14.50;11.30;;;;;;;;;;5069871;28;20033;-79
2022/09/30 10:30:55;;;;;;;11.32;9.88;;;;;;;;;;5073091;28;20021;-79
2022/09/30 10:33:33;;;;;;;14.50;13.00;;;;;;;;;;5072569;28;20031;-77
2022/09/30 10:36:04;;;;;;;9.32;7.82;;;;;;;;;;5067706;28;20063;-78
2022/09/30 10:38:33;;;;;;;13.60;12.25;;;;;;;;;;5073638;28;20025;-79
2022/09/30 10:41:00;;;;;;;7.53;5.50;;;;;;;;;;5073585;28;20020;-79
2022/09/30 10:43:29;;;;;;;8.15;4.30;;;;;;;;;;5072654;28;20048;-77
2022/09/30 10:45:58;;;;;;;10.47;7.73;;;;;;;;;;5072656;28;20031;-79
2022/09/30 10:48:25;;;;;;;10.57;7.05;;;;;;;;;;5072768;28;20356;-78
2022/09/30 10:50:52;;;;;;;10.40;9.02;;;;;;;;;;5072309;28;20020;-79
2022/09/30 10:53:22;;;;;;;11.82;10.63;;;;;;;;;;5072396;28;20067;-78
2022/09/30 10:55:48;;;;;;;13.67;10.60;;;;;;;;;;5072640;28;20035;-79
2022/09/30 10:58:34;;;;;;;10.75;9.10;;;;;;;;;;5072224;28;20028;-79
2022/09/30 11:01:20;;;;;;;10.68;8.27;;;;;;;;;;5070161;28;20020;-79
2022/09/30 11:03:54;;;;;;;11.38;8.50;;;;;;;;;;5072297;28;20115;-80
2022/09/30 11:06:23;;;;;;;12.70;8.32;;;;;;;;;;5072908;28;20033;-79
2022/09/30 11:08:58;;;;;;;10.75;9.05;;;;;;;;;;5073817;28;20475;-76
2022/09/30 11:11:26;;;;;;;10.10;9.07;;;;;;;;;;5074374;28;20032;-77
2022/09/30 11:14:10;;;;;;;10.50;8.75;;;;;;;;;;5072645;28;20127;-80
2022/09/30 11:16:42;;;;;;;10.30;8.98;;;;;;;;;;5071999;28;20037;-79
2022/09/30 11:19:17;;;;;;;10.35;7.75;;;;;;;;;;5072449;28;20025;-79
2022/09/30 11:21:56;;;;;;;10.55;7.15;;;;;;;;;;5072961;28;20561;-80
2022/09/30 11:24:29;;;;;;;8.80;6.90;;;;;;;;;;5073487;28;20399;-81
2022/09/30 11:27:01;;;;;;;8.02;5.97;;;;;;;;;;5076172;28;20024;-82
2022/09/30 11:29:35;;;;;;;6.28;4.38;;;;;;;;;;5075659;28;20029;-81
2022/09/30 11:32:20;;;;;;;3.63;2.67;;;;;;;;;;5074560;28;20027;-81
2022/09/30 11:34:56;;;;;;;10.82;9.00;;;;;;;;;;5072557;28;20387;-76
2022/09/30 11:37:32;;;;;;;11.45;8.98;;;;;;;;;;5071740;28;20044;-79
2022/09/30 11:40:16;;;;;;;10.57;9.48;;;;;;;;;;5071909;28;20021;-77
2022/09/30 11:42:54;;;;;;;6.18;4.47;;;;;;;;;;5072162;28;20029;-80
2022/09/30 11:45:26;;;;;;;9.32;7.07;;;;;;;;;;5071548;28;20025;-80
2022/09/30 11:48:11;;;;;;;13.30;10.70;;;;;;;;;;5072472;28;20029;-80
2022/09/30 11:50:49;;;;;;;9.70;7.93;;;;;;;;;;5072302;28;20025;-80
2022/09/30 11:53:15;;;;;;;13.55;11.18;;;;;;;;;;5073639;28;20039;-80
2022/09/30 11:55:41;;;;;;;9.75;8.57;;;;;;;;;;5072012;28;20044;-80
2022/09/30 11:58:28;;;;;;;11.68;9.30;;;;;;;;;;5072164;28;20036;-79
2022/09/30 12:01:10;;;;;;;9.68;7.68;;;;;;;;;;5071400;28;20028;-77
2022/09/30 12:03:39;;;;;;;13.20;10.07;;;;;;;;;;5073794;28;20071;-78
2022/09/30 12:06:12;;;;;;;11.60;8.25;;;;;;;;;;5071260;28;20501;-80
2022/09/30 12:08:41;;;;;;;11.13;8.88;;;;;;;;;;5051755;28;20407;-79
2022/09/30 12:11:07;;;;;;;6.93;4.72;;;;;;;;;;5058980;28;20375;-78
2022/09/30 12:13:39;;;;;;;9.40;6.47;;;;;;;;;;5070708;28;20035;-79
2022/09/30 12:16:08;;;;;;;9.48;7.05;;;;;;;;;;5069980;28;20028;-78
2022/09/30 12:18:38;;;;;;;8.02;5.75;;;;;;;;;;5072056;28;20024;-80
2022/09/30 12:21:11;;;;;;;6.88;4.15;;;;;;;;;;5070779;28;20387;-79
2022/09/30 12:24:10;;;;;;;9.18;5.80;;;;;;;;;;5071157;28;20044;-77
2022/09/30 12:26:36;;;;;;;10.70;6.93;;;;;;;;;;5069297;28;20107;-75
2022/09/30 12:32:08;;;;;;;6.63;4.65;;;;;;;;;;5070081;28;20540;-75
2022/09/30 12:34:37;;;;;;;7.65;3.85;;;;;;;;;;5070518;28;20112;-77
2022/09/30 12:37:21;;;;;;;7.10;3.30;;;;;;;;;;5070703;28;20068;-79
2022/09/30 12:39:57;;;;;;;5.20;3.45;;;;;;;;;;5069923;28;20039;-79
2022/09/30 12:42:26;;;;;;;6.13;3.90;;;;;;;;;;5070668;28;20008;-78
2022/09/30 12:45:07;;;;;;;4.03;2.83;;;;;;;;;;5070595;28;20117;-80
2022/09/30 12:47:55;;;;;;;3.55;1.48;;;;;;;;;;5069042;28;20053;-78
2022/09/30 12:50:23;;;;;;;5.78;3.65;;;;;;;;;;5069257;28;20517;-78
2022/09/30 12:52:49;;;;;;;6.53;3.40;;;;;;;;;;5069942;28;20024;-79
2022/09/30 12:55:22;;;;;;;6.20;3.05;;;;;;;;;;5070252;28;20407;-77
2022/09/30 12:57:48;;;;;;;5.40;2.67;;;;;;;;;;5070484;28;20024;-78
2022/09/30 13:00:14;;;;;;;4.38;2.30;;;;;;;;;;5071012;28;20028;-78
2022/09/30 13:02:42;;;;;;;3.33;1.50;;;;;;;;;;5069862;28;20044;-78
2022/09/30 13:05:26;;;;;;;3.78;2.10;;;;;;;;;;5069715;28;20024;-76
2022/09/30 13:08:05;;;;;;;3.35;2.00;;;;;;;;;;5069774;28;20102;-77
2022/09/30 13:10:32;;;;;;;5.15;2.70;;;;;;;;;;5059280;28;20032;-77
2022/09/30 13:13:29;;;;;;;3.60;1.70;;;;;;;;;;5069795;28;20111;-78
2022/09/30 13:16:01;;;;;;;6.38;2.33;;;;;;;;;;5067484;28;20071;-77
2022/09/30 13:18:28;;;;;;;2.88;1.58;;;;;;;;;;5069385;28;20040;-78
2022/09/30 13:21:07;;;;;;;5.28;2.78;;;;;;;;;;5069677;28;20540;-78
2022/09/30 13:23:39;;;;;;;4.78;1.92;;;;;;;;;;5070898;28;20079;-78
2022/09/30 13:26:23;;;;;;;3.38;2.30;;;;;;;;;;5061103;28;20021;-78
2022/09/30 13:28:50;;;;;;;3.38;1.63;;;;;;;;;;5068312;28;20021;-79
2022/09/30 13:31:20;;;;;;;3.97;1.90;;;;;;;;;;5069619;28;20028;-78
2022/09/30 13:33:46;;;;;;;4.63;2.33;;;;;;;;;;5068954;28;20017;-78
2022/09/30 13:36:25;;;;;;;5.75;2.20;;;;;;;;;;5069832;28;20071;-78
2022/09/30 13:39:06;;;;;;;2.33;1.25;;;;;;;;;;5069311;28;20056;-75
2022/09/30 13:41:36;;;;;;;4.25;1.67;;;;;;;;;;5059188;28;20032;-77
2022/09/30 13:44:12;;;;;;;2.08;1.02;;;;;;;;;;5071161;28;20399;-77
2022/09/30 13:46:49;;;;;;;3.70;1.35;;;;;;;;;;5072729;28;20039;-77
2022/09/30 13:49:22;;;;;;;3.38;1.60;;;;;;;;;;5071007;28;20070;-78
2022/09/30 13:51:53;;;;;;;3.60;1.80;;;;;;;;;;5070566;28;20039;-77
2022/09/30 13:54:27;;;;;;;1.30;0.77;;;;;;;;;;5069104;28;20497;-78
2022/09/30 13:56:54;;;;;;;3.20;1.35;;;;;;;;;;5068961;28;20115;-78
2022/09/30 13:59:25;;;;;;;3.67;1.38;;;;;;;;;;5069207;28;20035;-78
2022/09/30 14:02:11;;;;;;;4.45;1.35;;;;;;;;;;5069266;28;20129;-79
2022/09/30 14:04:57;;;;;;;2.30;1.40;;;;;;;;;;5062890;28;20040;-79
2022/09/30 14:07:42;;;;;;;4.50;1.40;;;;;;;;;;5049787;28;20024;-78
2022/09/30 14:10:21;;;;;;;4.53;2.17;;;;;;;;;;5053255;28;20610;-78
2022/09/30 14:13:01;;;;;;;1.90;1.10;;;;;;;;;;5069819;28;20033;-77
2022/09/30 14:15:33;;;;;;;2.83;0.93;;;;;;;;;;5069784;28;20402;-79
2022/09/30 14:18:18;;;;;;;2.35;0.80;;;;;;;;;;5069108;28;20127;-79
2022/09/30 14:20:53;;;;;;;1.92;1.05;;;;;;;;;;5068916;28;20467;-79
2022/09/30 14:23:19;;;;;;;4.70;2.05;;;;;;;;;;5069060;28;20052;-79
2022/09/30 14:25:55;;;;;;;5.03;1.90;;;;;;;;;;5070396;28;20013;-79
2022/09/30 14:28:28;;;;;;;2.78;1.50;;;;;;;;;;5069493;28;20020;-80
2022/09/30 14:31:08;;;;;;;7.18;1.63;;;;;;;;;;5069515;28;20025;-77
2022/09/30 14:33:35;;;;;;;4.47;1.75;;;;;;;;;;5067686;28;20031;-78
2022/09/30 14:36:02;;;;;;;3.35;2.08;;;;;;;;;;5068483;28;20055;-80
2022/09/30 14:38:30;;;;;;;5.55;1.92;;;;;;;;;;5070438;28;20017;-80
2022/09/30 14:40:58;;;;;;;2.80;1.30;;;;;;;;;;5070310;28;20391;-79
2022/09/30 14:43:32;;;;;;;2.03;1.10;;;;;;;;;;5070044;28;20114;-80
2022/09/30 14:46:01;;;;;;;3.38;1.40;;;;;;;;;;5070297;28;20021;-78
2022/09/30 14:48:30;;;;;;;2.03;1.10;;;;;;;;;;5069734;28;20478;-79